Aérodrome :
LOGIN :

S'inscrire | Disclaimer

   EN    FR    IT 

 










Légende :    VFR   VFR Marginal   IFR   IFR Intensif   IFR Très Intensif
Visi : 
Plafond : 
>= 8 km
>= 3000ft
5 à 8 km
1000 à 3000 ft
1500m à 5 km
500 à 1000 ft
800 à 1500m
200 à 500 ft
< 800m
< 200 ft
Symboles :   Orages  Brouillard  Fortes neiges  Fortes précipitations  Vent > 20 kt
SIGMETs :   Divers  Orages  Givrage  Turbulence  Onde Orograph.  Cendres Volcan.






- Altitude de l'aérodrome : 74 ft
- Code IATA : MRS


LFML - Marseille / Marignane

DERNIER METAR :
  • 032100Z AUTO 23003KT 200V270 CAVOK 24/18 Q1017 NOSIG

METARs EXPIRÉS :
  • 032030Z AUTO 15002KT CAVOK 25/17 Q1017 TEMPO VRB12KT
  • 032000Z AUTO 18004KT CAVOK 25/17 Q1017 TEMPO FEW110TCU
  • 031930Z AUTO 20008KT CAVOK 26/15 Q1017 TEMPO FEW110TCU
  • 031900Z AUTO 20004KT 160V220 CAVOK 27/14 Q1016 TEMPO FEW110TCU
  • 031830Z AUTO 17004KT CAVOK 28/14 Q1016 TEMPO FEW110TCU
  • 030500Z AUTO 12005KT CAVOK 21/08 Q1017 NOSIG

TAF TAF LFML
Valide du 03 à 21h jusqu'au 05 à 03h UTC


032000Z 0321/0503 VRB02KT CAVOK TX35/0415Z TN23/0403Z
PROB30
TEMPO 0322/0402 VRB12KT
TEMPO 0413/0419 24014KT
ATIS : +33 4 42 31 15 15



MET'MAP, la Météo Aéronautique d'un coup d'oeil ! - Copyright ORBIFLY Décembre 2007 - Disclaimer

ORBIFLY MET'MAP TEAM :

Programmation & Développement : Alexandra Zaïnal
Sur une idée originale de : Baudouin d'Aumeries
Soutien technique & logistique : Manuel Goepfert
Assistance : Marc-Olivier Méhu




SOURCES & CREDITS :

   NOAA